sensor_id;sensor_type;location;lat;lon;timestamp;temperature;humidity
46458;DHT22;32155;54.076;12.092;2023-08-08T00:01:50;14.70;99.90
46458;DHT22;32155;54.076;12.092;2023-08-08T00:04:16;14.70;99.90
46458;DHT22;32155;54.076;12.092;2023-08-08T00:06:42;14.60;99.90
46458;DHT22;32155;54.076;12.092;2023-08-08T00:09:08;14.70;99.90
46458;DHT22;32155;54.076;12.092;2023-08-08T00:11:34;14.70;99.90
46458;DHT22;32155;54.076;12.092;2023-08-08T00:13:59;14.70;99.90
46458;DHT22;32155;54.076;12.092;2023-08-08T00:16:25;14.60;99.90
46458;DHT22;32155;54.076;12.092;2023-08-08T00:18:50;14.60;99.90
46458;DHT22;32155;54.076;12.092;2023-08-08T00:21:18;14.50;99.90
46458;DHT22;32155;54.076;12.092;2023-08-08T00:23:44;14.50;99.90
46458;DHT22;32155;54.076;12.092;2023-08-08T00:26:10;14.50;99.90
46458;DHT22;32155;54.076;12.092;2023-08-08T00:28:35;14.50;99.90
46458;DHT22;32155;54.076;12.092;2023-08-08T00:31:01;14.40;99.90
46458;DHT22;32155;54.076;12.092;2023-08-08T00:33:26;14.40;99.90
46458;DHT22;32155;54.076;12.092;2023-08-08T00:35:52;14.30;99.90
46458;DHT22;32155;54.076;12.092;2023-08-08T00:38:17;14.20;99.90
46458;DHT22;32155;54.076;12.092;2023-08-08T00:40:44;14.20;99.90
46458;DHT22;32155;54.076;12.092;2023-08-08T00:43:09;14.10;99.90
46458;DHT22;32155;54.076;12.092;2023-08-08T00:45:35;14.00;99.90
46458;DHT22;32155;54.076;12.092;2023-08-08T00:48:01;14.10;99.90
46458;DHT22;32155;54.076;12.092;2023-08-08T00:50:27;14.10;99.90
46458;DHT22;32155;54.076;12.092;2023-08-08T00:52:52;14.00;99.90
46458;DHT22;32155;54.076;12.092;2023-08-08T00:55:18;13.90;99.90
46458;DHT22;32155;54.076;12.092;2023-08-08T00:57:43;13.90;99.90
46458;DHT22;32155;54.076;12.092;2023-08-08T01:00:11;13.90;99.90
46458;DHT22;32155;54.076;12.092;2023-08-08T01:02:37;13.80;99.90
46458;DHT22;32155;54.076;12.092;2023-08-08T01:05:03;13.70;99.90
46458;DHT22;32155;54.076;12.092;2023-08-08T01:07:30;13.70;99.90
46458;DHT22;32155;54.076;12.092;2023-08-08T01:10:06;13.60;99.90
46458;DHT22;32155;54.076;12.092;2023-08-08T01:12:37;13.60;99.90
46458;DHT22;32155;54.076;12.092;2023-08-08T01:15:04;13.70;99.90
46458;DHT22;32155;54.076;12.092;2023-08-08T01:17:32;13.60;99.90
46458;DHT22;32155;54.076;12.092;2023-08-08T01:19:58;13.60;99.90
46458;DHT22;32155;54.076;12.092;2023-08-08T01:22:25;13.60;99.90
46458;DHT22;32155;54.076;12.092;2023-08-08T01:24:53;13.50;99.90
46458;DHT22;32155;54.076;12.092;2023-08-08T01:27:19;13.40;99.90
46458;DHT22;32155;54.076;12.092;2023-08-08T01:29:44;13.40;99.90
46458;DHT22;32155;54.076;12.092;2023-08-08T01:32:10;13.20;99.90
46458;DHT22;32155;54.076;12.092;2023-08-08T01:34:36;13.10;99.90
46458;DHT22;32155;54.076;12.092;2023-08-08T01:37:17;13.10;99.90
46458;DHT22;32155;54.076;12.092;2023-08-08T01:39:46;13.00;99.90
46458;DHT22;32155;54.076;12.092;2023-08-08T01:42:12;13.10;99.90
46458;DHT22;32155;54.076;12.092;2023-08-08T01:44:38;13.10;99.90
46458;DHT22;32155;54.076;12.092;2023-08-08T01:47:06;13.10;99.90
46458;DHT22;32155;54.076;12.092;2023-08-08T01:49:32;13.00;99.90
46458;DHT22;32155;54.076;12.092;2023-08-08T01:51:57;12.90;99.90
46458;DHT22;32155;54.076;12.092;2023-08-08T01:54:23;12.90;99.90
46458;DHT22;32155;54.076;12.092;2023-08-08T01:56:48;12.80;99.90
46458;DHT22;32155;54.076;12.092;2023-08-08T01:59:16;12.80;99.90
46458;DHT22;32155;54.076;12.092;2023-08-08T02:01:42;12.70;99.90
46458;DHT22;32155;54.076;12.092;2023-08-08T02:04:07;12.60;99.90
46458;DHT22;32155;54.076;12.092;2023-08-08T02:06:33;12.60;99.90
46458;DHT22;32155;54.076;12.092;2023-08-08T02:08:58;12.60;99.90
46458;DHT22;32155;54.076;12.092;2023-08-08T02:11:24;12.50;99.90
46458;DHT22;32155;54.076;12.092;2023-08-08T02:13:49;12.50;99.90
46458;DHT22;32155;54.076;12.092;2023-08-08T02:16:15;12.40;99.90
46458;DHT22;32155;54.076;12.092;2023-08-08T02:18:41;12.40;99.90
46458;DHT22;32155;54.076;12.092;2023-08-08T02:21:09;12.40;99.90
46458;DHT22;32155;54.076;12.092;2023-08-08T02:39:19;12.30;99.90
46458;DHT22;32155;54.076;12.092;2023-08-08T02:51:33;12.20;99.90
46458;DHT22;32155;54.076;12.092;2023-08-08T02:53:59;12.20;99.90
46458;DHT22;32155;54.076;12.092;2023-08-08T02:56:24;12.20;99.90
46458;DHT22;32155;54.076;12.092;2023-08-08T02:58:50;12.10;99.90
46458;DHT22;32155;54.076;12.092;2023-08-08T03:01:15;12.20;99.90
46458;DHT22;32155;54.076;12.092;2023-08-08T03:03:41;12.20;99.90
46458;DHT22;32155;54.076;12.092;2023-08-08T03:06:07;12.20;99.90
46458;DHT22;32155;54.076;12.092;2023-08-08T03:08:32;12.20;99.90
46458;DHT22;32155;54.076;12.092;2023-08-08T03:11:00;12.10;99.90
46458;DHT22;32155;54.076;12.092;2023-08-08T03:13:26;12.10;99.90
46458;DHT22;32155;54.076;12.092;2023-08-08T03:15:54;12.10;99.90
46458;DHT22;32155;54.076;12.092;2023-08-08T03:18:20;12.10;99.90
46458;DHT22;32155;54.076;12.092;2023-08-08T03:20:48;12.10;99.90
46458;DHT22;32155;54.076;12.092;2023-08-08T03:23:13;12.10;99.90
46458;DHT22;32155;54.076;12.092;2023-08-08T03:25:39;12.10;99.90
46458;DHT22;32155;54.076;12.092;2023-08-08T03:28:04;12.10;99.90
46458;DHT22;32155;54.076;12.092;2023-08-08T03:30:30;12.10;99.90
46458;DHT22;32155;54.076;12.092;2023-08-08T03:32:55;12.10;99.90
46458;DHT22;32155;54.076;12.092;2023-08-08T03:35:21;12.10;99.90
46458;DHT22;32155;54.076;12.092;2023-08-08T03:37:46;12.10;99.90
46458;DHT22;32155;54.076;12.092;2023-08-08T03:40:12;12.10;99.90
46458;DHT22;32155;54.076;12.092;2023-08-08T03:42:40;12.00;99.90
46458;DHT22;32155;54.076;12.092;2023-08-08T03:45:05;12.10;99.90
46458;DHT22;32155;54.076;12.092;2023-08-08T03:47:31;12.10;99.90
46458;DHT22;32155;54.076;12.092;2023-08-08T03:49:59;12.20;99.90
46458;DHT22;32155;54.076;12.092;2023-08-08T03:52:24;12.10;99.90
46458;DHT22;32155;54.076;12.092;2023-08-08T03:54:51;12.20;99.90
46458;DHT22;32155;54.076;12.092;2023-08-08T03:57:16;12.20;99.90
46458;DHT22;32155;54.076;12.092;2023-08-08T03:59:42;12.20;99.90
46458;DHT22;32155;54.076;12.092;2023-08-08T04:04:38;12.20;99.90
46458;DHT22;32155;54.076;12.092;2023-08-08T04:07:04;12.20;99.90
46458;DHT22;32155;54.076;12.092;2023-08-08T04:09:32;12.30;99.90
46458;DHT22;32155;54.076;12.092;2023-08-08T04:11:57;12.30;99.90
46458;DHT22;32155;54.076;12.092;2023-08-08T04:14:26;12.30;99.90
46458;DHT22;32155;54.076;12.092;2023-08-08T04:16:54;12.30;99.90
46458;DHT22;32155;54.076;12.092;2023-08-08T04:19:19;12.40;99.90
46458;DHT22;32155;54.076;12.092;2023-08-08T04:21:55;12.40;99.90
46458;DHT22;32155;54.076;12.092;2023-08-08T04:24:20;12.50;99.90
46458;DHT22;32155;54.076;12.092;2023-08-08T04:26:48;12.50;99.90
46458;DHT22;32155;54.076;12.092;2023-08-08T04:29:18;12.50;99.90
46458;DHT22;32155;54.076;12.092;2023-08-08T04:31:44;12.60;99.90
46458;DHT22;32155;54.076;12.092;2023-08-08T04:34:11;12.70;99.90
46458;DHT22;32155;54.076;12.092;2023-08-08T04:36:37;12.70;99.90
46458;DHT22;32155;54.076;12.092;2023-08-08T04:39:05;12.80;99.90
46458;DHT22;32155;54.076;12.092;2023-08-08T04:41:31;13.00;99.90
46458;DHT22;32155;54.076;12.092;2023-08-08T04:43:57;13.20;99.90
46458;DHT22;32155;54.076;12.092;2023-08-08T04:46:23;13.40;99.90
46458;DHT22;32155;54.076;12.092;2023-08-08T04:48:48;13.50;99.90
46458;DHT22;32155;54.076;12.092;2023-08-08T04:51:16;13.60;99.90
46458;DHT22;32155;54.076;12.092;2023-08-08T04:53:42;13.70;99.90
46458;DHT22;32155;54.076;12.092;2023-08-08T04:56:07;13.70;99.90
46458;DHT22;32155;54.076;12.092;2023-08-08T04:58:33;13.80;99.90
46458;DHT22;32155;54.076;12.092;2023-08-08T05:00:58;13.80;99.90
46458;DHT22;32155;54.076;12.092;2023-08-08T05:03:24;14.00;99.90
46458;DHT22;32155;54.076;12.092;2023-08-08T05:05:50;14.20;99.90
46458;DHT22;32155;54.076;12.092;2023-08-08T05:08:16;14.30;99.90
46458;DHT22;32155;54.076;12.092;2023-08-08T05:10:47;14.30;99.90
46458;DHT22;32155;54.076;12.092;2023-08-08T05:13:12;14.40;99.90
46458;DHT22;32155;54.076;12.092;2023-08-08T05:15:40;14.40;99.90
46458;DHT22;32155;54.076;12.092;2023-08-08T05:18:05;14.50;99.90
46458;DHT22;32155;54.076;12.092;2023-08-08T05:20:31;14.50;99.90
46458;DHT22;32155;54.076;12.092;2023-08-08T05:22:56;14.50;99.90
46458;DHT22;32155;54.076;12.092;2023-08-08T05:25:22;14.40;99.90
46458;DHT22;32155;54.076;12.092;2023-08-08T05:27:48;14.30;99.90
46458;DHT22;32155;54.076;12.092;2023-08-08T05:30:15;14.40;99.90
46458;DHT22;32155;54.076;12.092;2023-08-08T05:32:40;14.40;99.90
46458;DHT22;32155;54.076;12.092;2023-08-08T05:35:06;14.40;99.90
46458;DHT22;32155;54.076;12.092;2023-08-08T05:37:32;14.40;99.90
46458;DHT22;32155;54.076;12.092;2023-08-08T05:40:00;14.80;99.90
46458;DHT22;32155;54.076;12.092;2023-08-08T05:42:25;15.20;99.90
46458;DHT22;32155;54.076;12.092;2023-08-08T05:44:53;15.70;99.90
46458;DHT22;32155;54.076;12.092;2023-08-08T05:47:19;15.80;99.90
46458;DHT22;32155;54.076;12.092;2023-08-08T05:49:44;15.90;99.90
46458;DHT22;32155;54.076;12.092;2023-08-08T05:52:10;16.00;99.90
46458;DHT22;32155;54.076;12.092;2023-08-08T05:54:38;16.20;99.90
46458;DHT22;32155;54.076;12.092;2023-08-08T05:57:03;16.30;99.90
46458;DHT22;32155;54.076;12.092;2023-08-08T05:59:31;16.50;99.90
46458;DHT22;32155;54.076;12.092;2023-08-08T06:01:57;16.40;99.90
46458;DHT22;32155;54.076;12.092;2023-08-08T06:04:24;16.80;99.90
46458;DHT22;32155;54.076;12.092;2023-08-08T06:06:50;17.10;99.90
46458;DHT22;32155;54.076;12.092;2023-08-08T06:09:15;17.10;99.90
46458;DHT22;32155;54.076;12.092;2023-08-08T06:11:41;17.20;99.90
46458;DHT22;32155;54.076;12.092;2023-08-08T06:14:07;17.30;99.90
46458;DHT22;32155;54.076;12.092;2023-08-08T06:16:32;17.30;99.90
46458;DHT22;32155;54.076;12.092;2023-08-08T06:18:58;17.20;99.90
46458;DHT22;32155;54.076;12.092;2023-08-08T06:21:23;17.30;99.90
46458;DHT22;32155;54.076;12.092;2023-08-08T06:23:49;17.40;99.90
46458;DHT22;32155;54.076;12.092;2023-08-08T06:26:15;17.50;99.90
46458;DHT22;32155;54.076;12.092;2023-08-08T06:28:40;17.20;99.90
46458;DHT22;32155;54.076;12.092;2023-08-08T06:31:06;17.10;99.90
46458;DHT22;32155;54.076;12.092;2023-08-08T06:33:32;17.00;99.90
46458;DHT22;32155;54.076;12.092;2023-08-08T06:35:57;16.70;99.90
46458;DHT22;32155;54.076;12.092;2023-08-08T06:38:23;16.90;99.90
46458;DHT22;32155;54.076;12.092;2023-08-08T06:40:49;17.20;99.90
46458;DHT22;32155;54.076;12.092;2023-08-08T06:43:14;17.60;99.90
46458;DHT22;32155;54.076;12.092;2023-08-08T06:45:40;17.60;99.90
46458;DHT22;32155;54.076;12.092;2023-08-08T06:48:08;17.30;99.90
46458;DHT22;32155;54.076;12.092;2023-08-08T06:50:36;17.00;99.90
46458;DHT22;32155;54.076;12.092;2023-08-08T06:53:02;16.60;99.90
46458;DHT22;32155;54.076;12.092;2023-08-08T06:55:28;16.40;99.90
46458;DHT22;32155;54.076;12.092;2023-08-08T06:57:53;16.60;99.90
46458;DHT22;32155;54.076;12.092;2023-08-08T07:00:19;17.40;99.90
46458;DHT22;32155;54.076;12.092;2023-08-08T07:02:44;17.20;99.90
46458;DHT22;32155;54.076;12.092;2023-08-08T07:05:10;17.20;99.90
46458;DHT22;32155;54.076;12.092;2023-08-08T07:07:36;17.90;99.90
46458;DHT22;32155;54.076;12.092;2023-08-08T07:10:01;18.00;99.90
46458;DHT22;32155;54.076;12.092;2023-08-08T07:12:29;18.60;99.90
46458;DHT22;32155;54.076;12.092;2023-08-08T07:14:54;19.30;99.90
46458;DHT22;32155;54.076;12.092;2023-08-08T07:17:20;19.10;99.90
46458;DHT22;32155;54.076;12.092;2023-08-08T07:19:45;19.20;99.90
46458;DHT22;32155;54.076;12.092;2023-08-08T07:22:11;19.20;99.90
46458;DHT22;32155;54.076;12.092;2023-08-08T07:24:36;19.20;99.90
46458;DHT22;32155;54.076;12.092;2023-08-08T07:27:04;18.40;99.90
46458;DHT22;32155;54.076;12.092;2023-08-08T07:29:30;17.90;99.90
46458;DHT22;32155;54.076;12.092;2023-08-08T07:31:58;17.90;99.90
46458;DHT22;32155;54.076;12.092;2023-08-08T07:34:23;18.20;99.90
46458;DHT22;32155;54.076;12.092;2023-08-08T07:36:50;18.20;99.90
46458;DHT22;32155;54.076;12.092;2023-08-08T07:39:16;17.80;99.90
46458;DHT22;32155;54.076;12.092;2023-08-08T07:41:41;17.40;99.90
46458;DHT22;32155;54.076;12.092;2023-08-08T07:44:09;17.00;99.90
46458;DHT22;32155;54.076;12.092;2023-08-08T07:46:35;16.40;99.90
46458;DHT22;32155;54.076;12.092;2023-08-08T07:49:03;16.20;99.90
46458;DHT22;32155;54.076;12.092;2023-08-08T07:51:30;15.90;99.90
46458;DHT22;32155;54.076;12.092;2023-08-08T07:53:59;15.90;99.90
46458;DHT22;32155;54.076;12.092;2023-08-08T07:56:28;16.30;99.90
46458;DHT22;32155;54.076;12.092;2023-08-08T07:58:53;17.20;99.90
46458;DHT22;32155;54.076;12.092;2023-08-08T08:01:19;19.10;99.90
46458;DHT22;32155;54.076;12.092;2023-08-08T08:03:44;18.50;99.90
46458;DHT22;32155;54.076;12.092;2023-08-08T08:06:10;17.70;99.90
46458;DHT22;32155;54.076;12.092;2023-08-08T08:08:36;17.00;99.90
46458;DHT22;32155;54.076;12.092;2023-08-08T08:11:02;17.40;99.90
46458;DHT22;32155;54.076;12.092;2023-08-08T08:13:27;18.60;99.90
46458;DHT22;32155;54.076;12.092;2023-08-08T08:15:53;20.60;99.90
46458;DHT22;32155;54.076;12.092;2023-08-08T08:18:18;22.30;99.90
46458;DHT22;32155;54.076;12.092;2023-08-08T08:20:45;21.60;99.90
46458;DHT22;32155;54.076;12.092;2023-08-08T08:23:11;21.00;99.90
46458;DHT22;32155;54.076;12.092;2023-08-08T08:25:36;20.40;99.90
46458;DHT22;32155;54.076;12.092;2023-08-08T08:28:04;21.10;99.90
46458;DHT22;32155;54.076;12.092;2023-08-08T08:30:33;20.00;99.90
46458;DHT22;32155;54.076;12.092;2023-08-08T08:32:58;20.40;99.90
46458;DHT22;32155;54.076;12.092;2023-08-08T08:35:24;20.20;99.90
46458;DHT22;32155;54.076;12.092;2023-08-08T08:37:50;19.50;99.90
46458;DHT22;32155;54.076;12.092;2023-08-08T08:40:21;18.60;99.90
46458;DHT22;32155;54.076;12.092;2023-08-08T08:42:48;18.00;99.90
46458;DHT22;32155;54.076;12.092;2023-08-08T08:45:13;17.90;99.90
46458;DHT22;32155;54.076;12.092;2023-08-08T08:47:40;17.90;99.90
46458;DHT22;32155;54.076;12.092;2023-08-08T08:50:07;19.20;99.90
46458;DHT22;32155;54.076;12.092;2023-08-08T08:52:32;21.90;99.90
46458;DHT22;32155;54.076;12.092;2023-08-08T08:54:58;24.60;99.90
46458;DHT22;32155;54.076;12.092;2023-08-08T08:57:28;24.50;99.90
46458;DHT22;32155;54.076;12.092;2023-08-08T09:00:15;25.50;99.90
46458;DHT22;32155;54.076;12.092;2023-08-08T09:02:43;24.00;99.90
46458;DHT22;32155;54.076;12.092;2023-08-08T09:05:08;21.70;99.90
46458;DHT22;32155;54.076;12.092;2023-08-08T09:07:35;20.40;99.90
46458;DHT22;32155;54.076;12.092;2023-08-08T09:10:01;19.90;99.90
46458;DHT22;32155;54.076;12.092;2023-08-08T09:12:27;20.90;99.90
46458;DHT22;32155;54.076;12.092;2023-08-08T09:14:56;23.00;99.90
46458;DHT22;32155;54.076;12.092;2023-08-08T09:17:22;23.30;99.90
46458;DHT22;32155;54.076;12.092;2023-08-08T09:19:47;22.20;99.90
46458;DHT22;32155;54.076;12.092;2023-08-08T09:22:13;22.20;99.90
46458;DHT22;32155;54.076;12.092;2023-08-08T09:24:39;22.60;99.90
46458;DHT22;32155;54.076;12.092;2023-08-08T09:27:08;22.80;99.90
46458;DHT22;32155;54.076;12.092;2023-08-08T09:29:36;24.30;99.90
46458;DHT22;32155;54.076;12.092;2023-08-08T09:32:02;22.90;99.90
46458;DHT22;32155;54.076;12.092;2023-08-08T09:34:30;22.20;99.90
46458;DHT22;32155;54.076;12.092;2023-08-08T09:36:56;21.80;99.90
46458;DHT22;32155;54.076;12.092;2023-08-08T09:39:22;21.60;99.90
46458;DHT22;32155;54.076;12.092;2023-08-08T09:41:48;22.00;99.90
46458;DHT22;32155;54.076;12.092;2023-08-08T09:44:13;23.30;99.90
46458;DHT22;32155;54.076;12.092;2023-08-08T09:46:41;21.90;99.90
46458;DHT22;32155;54.076;12.092;2023-08-08T09:49:07;21.50;99.90
46458;DHT22;32155;54.076;12.092;2023-08-08T09:51:37;20.80;99.90
46458;DHT22;32155;54.076;12.092;2023-08-08T09:54:08;22.90;99.90
46458;DHT22;32155;54.076;12.092;2023-08-08T09:56:34;22.10;99.90
46458;DHT22;32155;54.076;12.092;2023-08-08T09:59:02;24.50;99.90
46458;DHT22;32155;54.076;12.092;2023-08-08T10:01:30;24.90;99.90
46458;DHT22;32155;54.076;12.092;2023-08-08T10:03:56;23.80;99.90
46458;DHT22;32155;54.076;12.092;2023-08-08T10:06:22;22.60;99.90
46458;DHT22;32155;54.076;12.092;2023-08-08T10:08:48;21.40;99.90
46458;DHT22;32155;54.076;12.092;2023-08-08T10:11:13;20.40;99.90
46458;DHT22;32155;54.076;12.092;2023-08-08T10:13:46;20.50;99.90
46458;DHT22;32155;54.076;12.092;2023-08-08T10:16:15;22.10;99.90
46458;DHT22;32155;54.076;12.092;2023-08-08T10:18:41;22.70;99.90
46458;DHT22;32155;54.076;12.092;2023-08-08T10:21:07;22.10;99.90
46458;DHT22;32155;54.076;12.092;2023-08-08T10:23:40;21.30;99.90
46458;DHT22;32155;54.076;12.092;2023-08-08T10:26:16;20.60;99.90
46458;DHT22;32155;54.076;12.092;2023-08-08T10:28:51;19.50;99.90
46458;DHT22;32155;54.076;12.092;2023-08-08T10:31:18;19.40;99.90
46458;DHT22;32155;54.076;12.092;2023-08-08T10:33:45;19.60;99.90
46458;DHT22;32155;54.076;12.092;2023-08-08T10:36:14;19.60;99.90
46458;DHT22;32155;54.076;12.092;2023-08-08T10:41:15;20.00;99.90
46458;DHT22;32155;54.076;12.092;2023-08-08T10:43:51;20.70;99.90
46458;DHT22;32155;54.076;12.092;2023-08-08T10:46:26;24.10;99.90
46458;DHT22;32155;54.076;12.092;2023-08-08T10:48:52;25.40;99.90
46458;DHT22;32155;54.076;12.092;2023-08-08T10:51:18;26.90;99.90
46458;DHT22;32155;54.076;12.092;2023-08-08T10:53:44;27.10;99.90
46458;DHT22;32155;54.076;12.092;2023-08-08T10:56:12;26.90;99.90
46458;DHT22;32155;54.076;12.092;2023-08-08T10:58:38;28.20;99.90
46458;DHT22;32155;54.076;12.092;2023-08-08T11:01:05;26.90;99.90
46458;DHT22;32155;54.076;12.092;2023-08-08T11:03:42;26.10;99.90
46458;DHT22;32155;54.076;12.092;2023-08-08T11:06:08;24.10;99.90
46458;DHT22;32155;54.076;12.092;2023-08-08T11:08:34;23.50;99.90
46458;DHT22;32155;54.076;12.092;2023-08-08T11:11:02;22.90;99.90
46458;DHT22;32155;54.076;12.092;2023-08-08T11:13:28;22.30;99.90
46458;DHT22;32155;54.076;12.092;2023-08-08T11:22:08;20.50;99.90
46458;DHT22;32155;54.076;12.092;2023-08-08T11:27:55;19.90;99.90
46458;DHT22;32155;54.076;12.092;2023-08-08T11:30:24;20.00;99.90
46458;DHT22;32155;54.076;12.092;2023-08-08T11:32:53;20.40;99.90
46458;DHT22;32155;54.076;12.092;2023-08-08T11:35:21;20.40;99.90
46458;DHT22;32155;54.076;12.092;2023-08-08T11:37:47;20.10;99.90
46458;DHT22;32155;54.076;12.092;2023-08-08T11:40:14;20.00;99.90
46458;DHT22;32155;54.076;12.092;2023-08-08T11:42:40;20.10;99.90
46458;DHT22;32155;54.076;12.092;2023-08-08T11:45:10;19.50;99.90
46458;DHT22;32155;54.076;12.092;2023-08-08T11:47:38;18.90;99.90
46458;DHT22;32155;54.076;12.092;2023-08-08T11:50:05;18.40;99.90
46458;DHT22;32155;54.076;12.092;2023-08-08T11:52:31;18.10;99.90
46458;DHT22;32155;54.076;12.092;2023-08-08T11:55:00;18.00;99.90
46458;DHT22;32155;54.076;12.092;2023-08-08T11:57:29;18.00;99.90
46458;DHT22;32155;54.076;12.092;2023-08-08T11:59:56;18.10;99.90
46458;DHT22;32155;54.076;12.092;2023-08-08T12:02:22;19.10;99.90
46458;DHT22;32155;54.076;12.092;2023-08-08T12:04:48;20.70;99.90
46458;DHT22;32155;54.076;12.092;2023-08-08T12:07:14;23.40;99.90
46458;DHT22;32155;54.076;12.092;2023-08-08T12:09:40;23.90;99.90
46458;DHT22;32155;54.076;12.092;2023-08-08T12:12:08;24.90;99.90
46458;DHT22;32155;54.076;12.092;2023-08-08T12:14:37;25.60;99.90
46458;DHT22;32155;54.076;12.092;2023-08-08T12:17:05;25.20;99.90
46458;DHT22;32155;54.076;12.092;2023-08-08T12:19:31;25.40;99.90
46458;DHT22;32155;54.076;12.092;2023-08-08T12:21:56;25.10;99.90
46458;DHT22;32155;54.076;12.092;2023-08-08T12:24:22;23.30;99.90
46458;DHT22;32155;54.076;12.092;2023-08-08T12:26:47;22.50;99.90
46458;DHT22;32155;54.076;12.092;2023-08-08T12:29:13;22.10;99.90
46458;DHT22;32155;54.076;12.092;2023-08-08T12:31:39;21.60;99.90
46458;DHT22;32155;54.076;12.092;2023-08-08T12:34:04;21.50;99.90
46458;DHT22;32155;54.076;12.092;2023-08-08T12:36:33;20.90;99.90
46458;DHT22;32155;54.076;12.092;2023-08-08T12:38:58;20.10;99.90
46458;DHT22;32155;54.076;12.092;2023-08-08T12:41:24;19.50;99.90
46458;DHT22;32155;54.076;12.092;2023-08-08T12:43:50;18.70;99.90
46458;DHT22;32155;54.076;12.092;2023-08-08T12:46:16;18.40;99.90
46458;DHT22;32155;54.076;12.092;2023-08-08T12:48:41;18.20;99.90
46458;DHT22;32155;54.076;12.092;2023-08-08T12:51:08;18.10;99.90
46458;DHT22;32155;54.076;12.092;2023-08-08T12:53:34;17.90;99.90
46458;DHT22;32155;54.076;12.092;2023-08-08T12:56:02;17.60;99.90
46458;DHT22;32155;54.076;12.092;2023-08-08T12:58:27;17.70;99.90
46458;DHT22;32155;54.076;12.092;2023-08-08T13:00:53;17.70;99.90
46458;DHT22;32155;54.076;12.092;2023-08-08T13:03:18;17.80;99.90
46458;DHT22;32155;54.076;12.092;2023-08-08T13:05:44;17.70;99.90
46458;DHT22;32155;54.076;12.092;2023-08-08T13:08:09;17.90;99.90
46458;DHT22;32155;54.076;12.092;2023-08-08T13:10:35;18.00;99.90
46458;DHT22;32155;54.076;12.092;2023-08-08T13:13:03;18.80;99.90
46458;DHT22;32155;54.076;12.092;2023-08-08T13:15:29;20.80;99.90
46458;DHT22;32155;54.076;12.092;2023-08-08T13:17:55;21.30;99.90
46458;DHT22;32155;54.076;12.092;2023-08-08T13:20:20;21.80;99.90
46458;DHT22;32155;54.076;12.092;2023-08-08T13:22:47;21.10;99.90
46458;DHT22;32155;54.076;12.092;2023-08-08T13:25:12;20.30;99.90
46458;DHT22;32155;54.076;12.092;2023-08-08T13:27:38;19.70;99.90
46458;DHT22;32155;54.076;12.092;2023-08-08T13:30:04;19.20;99.90
46458;DHT22;32155;54.076;12.092;2023-08-08T13:32:36;18.60;99.90
46458;DHT22;32155;54.076;12.092;2023-08-08T13:35:02;18.20;99.90
46458;DHT22;32155;54.076;12.092;2023-08-08T13:37:30;17.90;99.90
46458;DHT22;32155;54.076;12.092;2023-08-08T13:39:57;17.70;99.90
46458;DHT22;32155;54.076;12.092;2023-08-08T13:42:23;17.50;99.90
46458;DHT22;32155;54.076;12.092;2023-08-08T13:44:49;17.20;99.90
46458;DHT22;32155;54.076;12.092;2023-08-08T13:47:14;17.00;99.90
46458;DHT22;32155;54.076;12.092;2023-08-08T13:49:42;16.50;99.90
46458;DHT22;32155;54.076;12.092;2023-08-08T13:52:10;15.60;99.90
46458;DHT22;32155;54.076;12.092;2023-08-08T13:54:36;15.00;99.90
46458;DHT22;32155;54.076;12.092;2023-08-08T13:57:01;14.90;99.90
46458;DHT22;32155;54.076;12.092;2023-08-08T13:59:27;14.80;99.90
46458;DHT22;32155;54.076;12.092;2023-08-08T14:01:52;14.50;99.90
46458;DHT22;32155;54.076;12.092;2023-08-08T14:04:18;14.40;99.90
46458;DHT22;32155;54.076;12.092;2023-08-08T14:06:44;14.40;99.90
46458;DHT22;32155;54.076;12.092;2023-08-08T14:09:10;14.40;99.90
46458;DHT22;32155;54.076;12.092;2023-08-08T14:11:35;14.30;99.90
46458;DHT22;32155;54.076;12.092;2023-08-08T14:14:01;14.40;99.90
46458;DHT22;32155;54.076;12.092;2023-08-08T14:16:27;14.40;99.90
46458;DHT22;32155;54.076;12.092;2023-08-08T14:18:54;14.40;99.90
46458;DHT22;32155;54.076;12.092;2023-08-08T14:21:22;14.30;99.90
46458;DHT22;32155;54.076;12.092;2023-08-08T14:23:48;14.30;99.90
46458;DHT22;32155;54.076;12.092;2023-08-08T14:26:14;14.40;99.90
46458;DHT22;32155;54.076;12.092;2023-08-08T14:28:39;14.50;99.90
46458;DHT22;32155;54.076;12.092;2023-08-08T14:31:05;14.50;99.90
46458;DHT22;32155;54.076;12.092;2023-08-08T14:33:32;14.60;99.90
46458;DHT22;32155;54.076;12.092;2023-08-08T14:35:57;14.80;99.90
46458;DHT22;32155;54.076;12.092;2023-08-08T14:38:23;15.50;99.90
46458;DHT22;32155;54.076;12.092;2023-08-08T14:40:51;16.10;99.90
46458;DHT22;32155;54.076;12.092;2023-08-08T14:43:20;16.20;99.90
46458;DHT22;32155;54.076;12.092;2023-08-08T14:45:45;15.90;99.90
46458;DHT22;32155;54.076;12.092;2023-08-08T14:48:11;15.50;99.90
46458;DHT22;32155;54.076;12.092;2023-08-08T14:50:36;15.30;99.90
46458;DHT22;32155;54.076;12.092;2023-08-08T14:53:02;15.30;99.90
46458;DHT22;32155;54.076;12.092;2023-08-08T14:55:28;15.30;99.90
46458;DHT22;32155;54.076;12.092;2023-08-08T14:57:56;15.30;99.90
46458;DHT22;32155;54.076;12.092;2023-08-08T15:00:22;15.30;99.90
46458;DHT22;32155;54.076;12.092;2023-08-08T15:02:47;15.50;99.90
46458;DHT22;32155;54.076;12.092;2023-08-08T15:05:13;15.90;99.90
46458;DHT22;32155;54.076;12.092;2023-08-08T15:07:41;16.20;99.90
46458;DHT22;32155;54.076;12.092;2023-08-08T15:10:06;16.30;99.90
46458;DHT22;32155;54.076;12.092;2023-08-08T15:12:32;16.30;99.90
46458;DHT22;32155;54.076;12.092;2023-08-08T15:14:58;16.30;99.90
46458;DHT22;32155;54.076;12.092;2023-08-08T15:17:23;16.30;99.90
46458;DHT22;32155;54.076;12.092;2023-08-08T15:19:51;16.20;99.90
46458;DHT22;32155;54.076;12.092;2023-08-08T15:22:18;16.40;99.90
46458;DHT22;32155;54.076;12.092;2023-08-08T15:24:46;16.50;99.90
46458;DHT22;32155;54.076;12.092;2023-08-08T15:27:11;16.60;99.90
46458;DHT22;32155;54.076;12.092;2023-08-08T15:29:37;16.70;99.90
46458;DHT22;32155;54.076;12.092;2023-08-08T15:32:03;16.80;99.90
46458;DHT22;32155;54.076;12.092;2023-08-08T15:34:33;17.00;99.90
46458;DHT22;32155;54.076;12.092;2023-08-08T15:36:59;17.20;99.90
46458;DHT22;32155;54.076;12.092;2023-08-08T15:39:27;17.30;99.90
46458;DHT22;32155;54.076;12.092;2023-08-08T15:42:05;17.20;99.90
46458;DHT22;32155;54.076;12.092;2023-08-08T15:44:42;16.80;99.90
46458;DHT22;32155;54.076;12.092;2023-08-08T15:47:13;16.60;99.90
46458;DHT22;32155;54.076;12.092;2023-08-08T15:49:39;16.60;99.90
46458;DHT22;32155;54.076;12.092;2023-08-08T15:52:05;16.70;99.90